This is the latest recevied weather packets stored in our database for station/object CE3UOB-10. If no packets are shown the sender has not sent any weather packets the latest 10 day(s).
| Time | Temp. | Humidity | Pressure | Rain* | Wind** | Luminosity | Snow |
|---|---|---|---|---|---|---|---|
| 1777844924 | 20° C | 41% | 995.3 hPa | - | - | - | - |
| 1777844917 | 20° C | 41% | 995.3 hPa | - | - | - | - |
| 1777843124 | 20° C | 42% | 994.8 hPa | - | - | - | - |
| 1777843117 | 20° C | 42% | 994.8 hPa | - | - | - | - |
| 1777841324 | 20.56° C | 39% | 994.7 hPa | - | - | - | - |
| 1777841317 | 20.56° C | 39% | 994.7 hPa | - | - | - | - |
| 1777839515 | 21.67° C | 33% | 994.3 hPa | - | - | - | - |
| 1777838264 | 20° C | 41% | 994.3 hPa | - | - | - | - |
| 1777836464 | 20° C | 46% | 994.2 hPa | - | - | - | - |
| 1777834663 | 20° C | 46% | 994.4 hPa | - | - | - | - |
| 1777832863 | 18.89° C | 43% | 994.7 hPa | - | - | - | - |
| 1777831063 | 20° C | 31% | 994.9 hPa | - | - | - | - |
| 1777829263 | 16.11° C | 61% | 994.9 hPa | - | - | - | - |
| 1777827475 | 16.11° C | 60% | 995.5 hPa | - | - | - | - |
| 1777827463 | 16.11° C | 60% | 995.5 hPa | - | - | - | - |
| 1777825663 | 15.56° C | 61% | 995.9 hPa | - | - | - | - |
| 1777823862 | 15° C | 62% | 996.1 hPa | - | - | - | - |
| 1777822062 | 14.44° C | 63% | 996.2 hPa | - | - | - | - |
| 1777820270 | 13.33° C | 61% | 996.3 hPa | - | - | - | - |
| 1777820262 | 13.33° C | 61% | 996.3 hPa | - | - | - | - |
| 1777818461 | 12.22° C | 65% | 996.4 hPa | - | - | - | - |
| 1777815330 | 10° C | 77% | 996.8 hPa | - | - | - | - |
| 1777813532 | 8.33° C | 79% | 996.8 hPa | - | - | - | - |
| 1777809924 | 6.11° C | 79% | 996.7 hPa | - | - | - | - |
| 1777809920 | 6.11° C | 79% | 996.7 hPa | - | - | - | - |
* Rain since midnight (hover to see other rain measurements)
** Current wind speed in m/s (hover to see current wind gust speed)